Latest Coastal Weather Observations for King Island Airport

IDT60701

Issued at 12:52 pm EDT Tuesday 2 March 2021 (issued every 10 minutes, with the page automatically refreshed every 10 minutes)

About coastal observations | Map of coastal stations | Coastal observations for TAS | Marine services | Other Formats
Station Details ID: 098017 Name: KING ISLAND AIRPORT Lat: -39.88 Lon: 143.89 Height: 35.42 m
Data from the previous 72 hours. | See also: Recent months at King Island Airport
Date/Time
EDT
Wind Sea
Height
m
Swell Vis
km
Cloud Weather Temp
°C
Press
MSL
hPa
Rain since
9am
mm
Dir  Spd
kts
Gust
kts
Height
m
Period
s
Dir
02/12:33pm SSW 16 26 - - - - 10 Partly cloudy - 14.6 1019.5 0.0
02/12:30pm SSW 16 24 - - - - 10 Partly cloudy - 15.5 1019.5 0.0
02/12:00pm SSW 17 23 - - - - 10 Cloudy - 13.9 1019.5 0.0
02/11:30am SSW 16 23 - - - - 10 Partly cloudy - 13.7 1019.1 0.0
02/11:00am SSW 17 22 - - - - 10 Partly cloudy - 13.9 1019.1 0.0
02/10:32am SSW 16 27 - - - - 10 Partly cloudy - 14.2 1018.9 0.0
02/10:30am S 14 22 - - - - 10 Partly cloudy - 14.9 1018.9 0.0
02/10:00am SSW 16 22 - - - - 10 Partly cloudy - 14.0 1018.8 0.0
02/09:30am SSW 16 21 - - - - 10 Partly cloudy - 13.1 1018.7 0.0
02/09:00am SSW 18 27 - - - - 10 Cloudy - 12.4 1018.7 0.0
02/08:56am SSW 16 27 - - - - 10 Partly cloudy - 12.7 1018.6 0.0
02/08:30am SSW 16 23 - - - - 10 Partly cloudy - 13.4 1018.2 0.0
02/08:00am SSW 17 23 - - - - 10 Partly cloudy - 13.0 1017.9 0.0
02/07:30am SSW 17 23 - - - - 10 Partly cloudy - 12.4 1017.7 0.0
02/07:00am SSW 15 21 - - - - 10 Cloudy - 12.3 1017.4 0.0
02/06:30am SSW 16 23 - - - - 10 Partly cloudy - 12.4 1017.3 0.0
02/06:00am SSW 18 24 - - - - 10 Cloudy Recent precip. 12.3 1017.2 0.0
02/05:30am SSW 14 20 - - - - 10 Partly cloudy - 11.8 1017.1 0.0
02/05:00am SSW 15 20 - - - - 10 Partly cloudy - 12.3 1017.0 0.0
02/04:30am SSW 16 21 - - - - 10 Partly cloudy - 12.0 1016.8 0.0
02/04:00am SW 17 23 - - - - 10 Partly cloudy - 12.1 1016.9 0.0
02/03:30am SSW 17 25 - - - - 10 Partly cloudy - 12.0 1016.8 0.0
02/03:19am SSW 16 26 - - - - 10 Partly cloudy - 12.5 1016.8 0.0
02/03:00am SW 15 21 - - - - 10 Cloudy - 12.2 1016.8 0.0
02/02:30am SSW 16 25 - - - - 10 Partly cloudy - 12.5 1016.7 0.0
02/02:26am SSW 15 25 - - - - 10 Partly cloudy - 12.6 1016.7 0.0
02/02:00am SSW 16 21 - - - - 10 Partly cloudy - 11.9 1016.7 0.0
02/01:30am SSW 21 28 - - - - 10 Partly cloudy - 12.0 1016.7 0.0
02/01:00am SSW 18 24 - - - - 10 Partly cloudy - 12.2 1016.6 0.0
02/12:34am SSW 18 28 - - - - 10 Partly cloudy - 12.5 1016.6 0.0
02/12:30am SSW 17 24 - - - - 10 Partly cloudy - 12.4 1016.6 0.0
02/12:00am SSW 19 25 - - - - 10 Partly cloudy - 12.3 1016.3 0.0
 
Date/Time
EDT
Wind Sea
Height
m
Swell Vis
km
Cloud Weather Temp
°C
Press
MSL
hPa
Rain since
9am
mm
Dir  Spd
kts
Gust
kts
Height
m
Period
s
Dir
01/11:41pm SSW 18 28 - - - - 10 Partly cloudy - 12.1 1016.2 0.0
01/11:30pm SSW 19 25 - - - - 10 Partly cloudy - 12.1 1016.3 0.0
01/11:00pm SSW 19 25 - - - - 10 Partly cloudy - 12.6 1016.1 0.0
01/10:43pm SW 17 27 - - - - 10 Partly cloudy - 12.4 1016.1 0.0
01/10:30pm SSW 19 28 - - - - 10 Partly cloudy - 12.5 1016.0 0.0
01/10:27pm SSW 18 28 - - - - 10 Partly cloudy - 12.4 1016.0 0.0
01/10:00pm SSW 22 28 - - - - 10 Partly cloudy - 12.7 1015.9 0.0
01/09:30pm SW 18 25 - - - - 10 Partly cloudy - 12.8 1015.7 0.0
01/09:00pm SW 21 28 - - - - 10 Mostly cloudy - 13.0 1015.4 0.0
01/08:30pm SW 21 29 - - - - 10 Partly cloudy - 12.9 1015.2 0.0
01/08:10pm SW 20 30 - - - - 10 Partly cloudy - 13.0 1014.9 0.0
01/08:00pm SW 22 29 - - - - 10 Partly cloudy - 13.1 1014.8 0.0
01/07:39pm SW 20 30 - - - - 10 Partly cloudy - 13.3 1014.5 0.0
01/07:30pm SSW 22 29 - - - - 10 Partly cloudy - 13.3 1014.5 0.0
01/07:20pm SW 21 31 - - - - 10 Partly cloudy - 13.5 1014.3 0.0
01/07:00pm SW 20 29 - - - - 10 Partly cloudy - 13.8 1014.0 0.0
01/06:30pm SW 23 31 - - - - 10 Partly cloudy - 13.9 1013.6 0.0
01/06:22pm SW 20 30 - - - - 10 Partly cloudy - 14.6 1013.5 0.0
01/06:00pm SW 24 32 - - - - 10 Partly cloudy - 14.3 1013.2 0.0
01/05:30pm SW 25 35 - - - - 10 Partly cloudy - 15.3 1013.0 0.0
01/05:00pm SW 25 31 - - - - 10 Partly cloudy - 15.4 1012.7 0.0
01/04:35pm SW 25 35 - - - - 10 Partly cloudy - 16.0 1012.5 0.0
01/04:30pm SW 25 34 - - - - 10 Partly cloudy - 15.7 1012.5 0.0
01/04:01pm SW 25 35 - - - - 10 Partly cloudy - 15.7 1012.2 0.0
01/04:00pm SW 26 35 - - - - 10 Partly cloudy - 15.4 1012.2 0.0
01/03:40pm SW 25 35 - - - - 10 Partly cloudy - 16.4 1012.1 0.0
01/03:30pm WSW 24 33 - - - - 10 Partly cloudy - 15.9 1012.1 0.0
01/03:00pm SW 25 35 - - - - 10 Cloudy - 15.2 1012.1 0.0
01/02:30pm SW 24 34 - - - - 10 Partly cloudy - 16.4 1012.0 0.0
01/02:08pm SW 24 36 - - - - 10 Partly cloudy - 15.5 1011.7 0.0
01/02:00pm SW 22 31 - - - - 10 Partly cloudy - 16.4 1011.6 0.0
01/01:42pm SW 23 33 - - - - 10 Partly cloudy - 15.4 1011.7 0.0
01/01:39pm SW 24 33 - - - - 10 Partly cloudy - 15.5 1011.6 0.0
01/01:30pm SW 25 32 - - - - 10 Partly cloudy - 15.8 1011.6 0.0
01/01:16pm SW 23 30 - - - - 10 Partly cloudy - 15.2 1011.6 0.0
01/01:08pm SW 24 34 - - - - 6 Partly cloudy - 14.3 1011.6 0.0
01/01:04pm SW 25 34 - - - - 5 Partly cloudy - 14.0 1011.6 0.0
01/01:03pm SW 24 34 - - - - 6 Partly cloudy - 14.3 1011.6 0.0
01/01:02pm SW 25 34 - - - - 6 Partly cloudy - 14.3 1011.6 0.0
01/01:00pm SW 25 34 - - - - 10 Partly cloudy - 14.8 1011.5 0.0
01/12:49pm WSW 21 32 - - - - 10 Partly cloudy - 16.4 1011.3 0.0
01/12:30pm WSW 20 27 - - - - 10 Partly cloudy - 17.1 1011.3 0.0
01/12:00pm W 19 25 - - - - 10 Partly cloudy - 17.7 1011.2 0.0
01/11:30am WSW 18 26 - - - - 10 Partly cloudy - 17.6 1011.2 0.0
01/11:00am WSW 16 22 - - - - 10 Partly cloudy - 15.9 1011.3 0.0
01/10:30am WSW 17 26 - - - - 10 Partly cloudy - 15.9 1011.4 0.0
01/10:09am W 16 26 - - - - 10 Partly cloudy - 17.0 1011.1 0.0
01/10:00am WSW 14 19 - - - - 10 Partly cloudy - 17.4 1011.1 0.0
01/09:30am WSW 14 21 - - - - 10 Partly cloudy - 16.9 1011.1 0.0
01/09:00am WSW 13 17 - - - - 10 Mostly clear - 16.5 1010.7 0.0
01/08:30am WSW 13 18 - - - - 10 Partly cloudy - 15.7 1010.5 0.0
01/08:00am SW 11 17 - - - - 10 Partly cloudy - 15.5 1010.3 0.0
01/07:32am SW 13 17 - - - - 10 Partly cloudy - 15.3 1010.1 0.0
01/07:30am SW 12 17 - - - - 10 Partly cloudy - 15.3 1010.1 0.0
01/07:03am SW 9 12 - - - - 10 Partly cloudy - 15.1 1009.9 0.0
01/07:00am SW 10 14 - - - - 10 Partly cloudy - 15.1 1009.9 0.0
01/06:46am SW 12 16 - - - - 10 Partly cloudy - 15.1 1009.7 0.0
01/06:30am SW 13 19 - - - - 10 Partly cloudy - 15.4 1009.7 0.0
01/06:04am SW 9 11 - - - - 10 Partly cloudy - 15.3 1009.5 0.0
01/06:00am SW 8 10 - - - - 10 Mostly cloudy - 15.2 1009.5 0.0
01/05:42am SW 8 11 - - - - 10 Partly cloudy - 14.9 1009.4 0.0
01/05:30am SW 9 12 - - - - 10 Partly cloudy - 15.1 1009.3 0.0
01/05:00am W 5 6 - - - - 10 Partly cloudy - 14.7 1009.4 0.0
01/04:57am W 5 7 - - - - 10 Partly cloudy - 14.8 1009.4 0.0
01/04:30am W 6 8 - - - - 10 - - 14.3 1009.4 0.0
01/04:00am W 7 9 - - - - 10 Partly cloudy - 14.0 1009.5 0.0
01/03:30am W 6 8 - - - - 10 Partly cloudy - 13.5 1009.6 0.0
01/03:00am NW 2 4 - - - - 10 Mostly cloudy - 10.6 1009.8 0.0
01/02:30am CALM 0 0 - - - - 10 Partly cloudy - 11.3 1009.9 0.0
01/02:00am WSW 3 4 - - - - 10 - - 12.3 1010.1 0.0
01/01:30am CALM 0 0 - - - - 10 - - 11.9 1010.4 0.0
01/01:00am CALM 0 0 - - - - 10 Partly cloudy - 12.3 1010.5 0.0
01/12:30am CALM 0 3 - - - - 10 Partly cloudy - 12.2 1010.8 0.0
01/12:00am CALM 0 0 - - - - 10 Mostly clear - 12.6 1011.1 0.0
 
Date/Time
EDT
Wind Sea
Height
m
Swell Vis
km
Cloud Weather Temp
°C
Press
MSL
hPa
Rain since
9am
mm
Dir  Spd
kts
Gust
kts
Height
m
Period
s
Dir
28/11:30pm CALM 0 0 - - - - 10 - - 12.8 1011.1 0.0
28/11:00pm CALM 0 0 - - - - 10 Partly cloudy - 13.1 1011.0 0.0
28/10:30pm WSW 4 6 - - - - 10 Partly cloudy - 14.4 1011.2 0.0
28/10:00pm WSW 5 6 - - - - 10 Partly cloudy - 14.8 1011.3 0.0
28/09:30pm CALM 0 0 - - - - 10 - - 14.1 1011.1 0.0
28/09:00pm SW 4 5 - - - - 10 Cloudy - 14.2 1011.0 0.0
28/08:30pm SW 6 7 - - - - 10 - - 14.8 1010.9 0.0
28/08:00pm WSW 5 6 - - - - 10 - - 15.3 1010.8 0.0
28/07:30pm SW 6 8 - - - - 10 - - 16.2 1010.5 0.0
28/07:00pm SW 7 9 - - - - 10 Partly cloudy - 17.0 1010.4 0.0
28/06:30pm WSW 5 7 - - - - 10 - - 17.0 1010.5 0.0
28/06:00pm WSW 6 7 - - - - 10 Cloudy - 17.2 1010.4 0.0
28/05:30pm WSW 6 8 - - - - 10 - - 17.6 1010.6 0.0
28/05:00pm WNW 7 9 - - - - 10 - - 17.4 1010.8 0.0
28/04:30pm W 7 11 - - - - 10 - - 18.3 1010.8 0.0
28/04:00pm W 6 9 - - - - 10 - - 19.2 1011.1 0.0
28/03:30pm WSW 8 10 - - - - 10 - - 18.1 1011.4 0.0
28/03:00pm WSW 9 12 - - - - 10 - - 18.9 1011.6 0.0
28/02:30pm WSW 7 10 - - - - 10 - - 19.3 1011.7 0.0
28/02:00pm W 8 11 - - - - 10 - - 19.1 1011.9 0.0
28/01:30pm WNW 7 11 - - - - 10 - - 19.5 1012.1 0.0
28/01:00pm WNW 8 11 - - - - 10 - - 19.5 1012.4 0.0
28/12:30pm WNW 9 12 - - - - 10 Partly cloudy - 18.7 1012.8 0.0
28/12:00pm W 10 13 - - - - 10 Mostly clear - 18.4 1013.1 0.0
28/11:30am W 10 13 - - - - 10 Partly cloudy - 18.1 1013.3 0.0
28/11:26am W 10 13 - - - - 10 Partly cloudy - 18.0 1013.3 0.0
28/11:00am WNW 10 14 - - - - 10 Partly cloudy - 17.2 1013.4 0.0
28/10:30am W 9 12 - - - - 10 Partly cloudy - 17.3 1013.4 0.0
28/10:23am WNW 8 11 - - - - 10 Partly cloudy - 16.8 1013.4 0.0
28/10:00am WNW 7 8 - - - - 10 Partly cloudy - 16.6 1013.5 0.0
28/09:30am NW 3 5 - - - - 10 Partly cloudy - 16.8 1013.3 0.0
28/09:08am NNW 2 4 - - - - 10 Partly cloudy - 16.4 1013.2 0.0
28/09:00am NNE 1 4 - - - - 10 Partly cloudy - 16.3 1013.2 0.0
28/08:35am CALM 0 0 - - - - 10 Partly cloudy - 15.5 1013.1 0.0
28/08:30am CALM 0 0 - - - - 10 Partly cloudy - 15.6 1013.0 0.0
28/08:01am CALM 0 0 - - - - 10 Cloudy - 14.0 1012.9 0.0
28/08:00am CALM 0 0 - - - - 10 Cloudy - 14.0 1012.9 0.0
28/07:46am CALM 0 0 - - - - 1 Partly cloudy - 13.0 1012.8 0.0
28/07:35am CALM 0 0 - - - - 0.5 Partly cloudy - 12.7 1012.7 0.0
28/07:30am CALM 0 0 - - - - 0.6 Partly cloudy - 12.6 1012.7 0.0
28/07:12am CALM 0 0 - - - - 0.4 Partly cloudy - 12.5 1012.6 0.0
28/07:00am CALM 0 0 - - - - 0.9 Partly cloudy - 12.2 1012.4 0.0
28/06:30am SE 1 3 - - - - 2 Partly cloudy - 13.1 1012.2 0.0
28/06:29am SE 1 3 - - - - 4 Partly cloudy - 13.5 1012.2 0.0
28/06:00am ESE 5 6 - - - - 10 Mostly cloudy - 13.6 1011.9 0.0
28/05:30am SE 5 7 - - - - 10 Partly cloudy - 13.7 1012.0 0.0
28/05:24am SE 5 6 - - - - 10 Partly cloudy - 13.8 1011.9 0.0
28/05:06am ESE 3 4 - - - - 1 Partly cloudy - 13.0 1012.2 0.0
28/05:03am ESE 3 4 - - - - 0.6 Partly cloudy - 13.0 1012.2 0.0
28/05:00am ESE 2 4 - - - - 0.5 Partly cloudy - 12.9 1012.2 0.0
28/04:37am CALM 0 0 - - - - 0.2 Partly cloudy - 13.1 1012.5 0.0
28/04:30am CALM 0 0 - - - - 0.2 Partly cloudy - 13.2 1012.4 0.0
28/04:10am ESE 2 3 - - - - 0.9 - - 13.4 1012.4 0.0
28/04:06am ESE 3 3 - - - - 3 - - 13.6 1012.4 0.0
28/04:00am ESE 3 4 - - - - 10 - - 13.7 1012.3 0.0
28/03:30am ESE 4 5 - - - - 10 - - 14.1 1012.3 0.0
28/03:00am ESE 4 5 - - - - 10 Mostly cloudy - 14.2 1012.5 0.0
28/02:30am N 3 4 - - - - 10 Partly cloudy - 14.5 1012.9 0.0
28/02:00am CALM 0 0 - - - - 10 Partly cloudy - 15.0 1013.2 0.0
28/01:30am SE 4 5 - - - - 10 Partly cloudy - 15.2 1013.3 0.0
28/01:00am ESE 4 5 - - - - 10 Partly cloudy - 15.0 1013.5 0.0
28/12:30am SE 4 5 - - - - 10 Partly cloudy - 14.8 1013.4 0.0
28/12:00am SE 3 4 - - - - 10 Cloudy - 15.0 1013.6 0.0
 
Date/Time
EDT
Wind Sea
Height
m
Swell Vis
km
Cloud Weather Temp
°C
Press
MSL
hPa
Rain since
9am
mm
Dir  Spd
kts
Gust
kts
Height
m
Period
s
Dir
27/11:30pm SSE 4 5 - - - - 10 Partly cloudy - 15.0 1013.6 0.0
27/11:00pm S 4 6 - - - - 10 Partly cloudy - 14.9 1013.6 0.0
27/10:30pm S 5 6 - - - - 10 Partly cloudy - 14.9 1013.9 0.0
27/10:00pm SSE 3 4 - - - - 10 Partly cloudy - 15.2 1014.1 0.0
27/09:30pm SSW 3 4 - - - - 10 Cloudy - 15.2 1013.9 0.0
27/09:00pm SSW 3 4 - - - - 10 Cloudy - 15.5 1013.9 0.0
27/08:30pm CALM 0 0 - - - - 10 Partly cloudy - 15.7 1013.6 0.0
27/08:00pm ESE 4 5 - - - - 10 Partly cloudy - 15.9 1013.4 0.0
27/07:30pm E 6 8 - - - - 10 Partly cloudy - 16.3 1013.4 0.0
27/07:00pm ENE 5 8 - - - - 10 Cloudy - 16.6 1013.1 0.0
27/06:30pm NW 2 5 - - - - 10 Partly cloudy - 16.5 1013.1 0.0
27/06:00pm ENE 5 6 - - - - 10 Cloudy - 16.8 1013.1 0.0
27/05:30pm NW 1 3 - - - - 10 Partly cloudy - 16.7 1013.2 0.0
27/05:00pm ENE 5 8 - - - - 10 Partly cloudy - 17.0 1013.2 0.0
27/04:30pm ENE 7 8 - - - - 10 Partly cloudy - 17.2 1013.3 0.0
27/04:00pm ENE 8 10 - - - - 10 Partly cloudy - 17.2 1013.4 0.0
27/03:30pm ENE 7 11 - - - - 10 Partly cloudy - 16.9 1013.4 0.0
27/03:00pm NE 6 8 - - - - 10 Cloudy - 16.9 1013.6 0.0
27/02:30pm NE 7 10 - - - - 10 Partly cloudy - 16.9 1013.7 0.0
27/02:00pm NE 8 10 - - - - 10 Partly cloudy - 17.0 1013.8 0.0
27/01:30pm NE 9 14 - - - - 10 Partly cloudy - 16.8 1013.9 0.0
27/01:00pm NE 8 11 - - - - 10 Partly cloudy - 16.7 1013.9 0.0

Other formats

Comma delimited format used in spreadsheet applications
http://www.bom.gov.au/fwo/IDT60701/IDT60701.94850.axf

JavaScript Object Notation format (JSON) in row-major order
http://www.bom.gov.au/fwo/IDT60701/IDT60701.94850.json

Data quality

Most of these data are generated automatically and are frequently updated. Quality checks on data are not normally performed. It is possible for incorrect values to appear. Refer to information at About Latest Weather Observations and please check the disclaimer before using these data.